No.11 Kin Yu Maru — JD3371 — position and weather

sailwx.info

Track history (hours):
 
Tides and Currents Weather Stations Pressure Air Temp Water Temp Dewpoint Dewpoint Depression Visibility Wind Speed Wind Dir Waves Ship Positions

No.11 Kin Yu Maru

Last reported at 2017-Oct-14 13:27 UTC. Time now 2017-Oct-17 13:06 UTC.
Position N 34°58' E 139°29'.

Length 80 m; draft 5.3 m.

Type: Tanker. MMSI: 431003681.

Date/timePositionNaut miles runAvg speedWind from/ knotsBaromVisibWave heightAir tempDewpointWater temp
2017-Oct-14 13:27N 34°58' E 139°29'511.1
2017-Oct-14 13:00N 35°01' E 139°34'612.5
2017-Oct-14 12:30N 35°05' E 139°40'713.4
2017-Oct-14 12:01N 35°10' E 139°45'612.0
2017-Oct-14 11:30N 35°16' E 139°45'612.4
2017-Oct-14 11:00N 35°22' E 139°42'612.1
2017-Oct-14 10:31N 35°27' E 139°47'12 1.4
2017-Oct-14 02:17N 35°30' E 140°00'3 2.2
2017-Oct-14 00:49N 35°30' E 139°57'412.2
2017-Oct-14 00:30N 35°28' E 139°52'612.5
2017-Oct-14 00:00N 35°24' E 139°46'612.2
2017-Oct-13 23:30N 35°18' E 139°45'611.7
2017-Oct-13 23:00N 35°13' E 139°47'611.7
2017-Oct-13 22:30N 35°07' E 139°45'611.6
2017-Oct-13 22:00N 35°02' E 139°42'611.4
2017-Oct-13 21:30N 34°58' E 139°37'  
2017-Oct-05 07:30N 34°59' E 139°29'712.2
2017-Oct-05 06:57N 35°03' E 139°35'612.6
2017-Oct-05 06:30N 35°07' E 139°41'612.2
2017-Oct-05 06:00N 35°11' E 139°45'510.7
2017-Oct-05 05:30N 35°17' E 139°45'611.7
2017-Oct-05 05:00N 35°22' E 139°42'511.2
2017-Oct-05 04:30N 35°27' E 139°47'612.4
2017-Oct-05 04:00N 35°30' E 139°53'6 0.7
2017-Oct-04 19:28N 35°30' E 140°00'0 0.0
2017-Oct-04 18:25N 35°30' E 140°00'0 0.0
2017-Oct-04 17:49N 35°30' E 140°00'0 0.0
2017-Oct-04 17:19N 35°30' E 140°00'  
Track history (hours):
 
Tides and Currents Weather Stations Pressure Air Temp Water Temp Dewpoint Dewpoint Depression Visibility Wind Speed Wind Dir Waves Ship Positions

No.11 Kin Yu Maru

Last reported at 2017-Oct-14 13:27 UTC. Time now 2017-Oct-17 13:06 UTC.
Position N 34°58' E 139°29'.

Length 80 m; draft 5.3 m.

Type: Tanker. MMSI: 431003681.

Date/timePositionNaut miles runAvg speedWind from/ knotsBaromVisibWave heightAir tempDewpointWater temp
2017-Oct-14 13:27N 34°58' E 139°29'511.1
2017-Oct-14 13:00N 35°01' E 139°34'612.5
2017-Oct-14 12:30N 35°05' E 139°40'713.4
2017-Oct-14 12:01N 35°10' E 139°45'612.0
2017-Oct-14 11:30N 35°16' E 139°45'612.4
2017-Oct-14 11:00N 35°22' E 139°42'612.1
2017-Oct-14 10:31N 35°27' E 139°47'12 1.4
2017-Oct-14 02:17N 35°30' E 140°00'3 2.2
2017-Oct-14 00:49N 35°30' E 139°57'412.2
2017-Oct-14 00:30N 35°28' E 139°52'612.5
2017-Oct-14 00:00N 35°24' E 139°46'612.2
2017-Oct-13 23:30N 35°18' E 139°45'611.7
2017-Oct-13 23:00N 35°13' E 139°47'611.7
2017-Oct-13 22:30N 35°07' E 139°45'611.6
2017-Oct-13 22:00N 35°02' E 139°42'611.4
2017-Oct-13 21:30N 34°58' E 139°37'  
2017-Oct-05 07:30N 34°59' E 139°29'712.2
2017-Oct-05 06:57N 35°03' E 139°35'612.6
2017-Oct-05 06:30N 35°07' E 139°41'612.2
2017-Oct-05 06:00N 35°11' E 139°45'510.7
2017-Oct-05 05:30N 35°17' E 139°45'611.7
2017-Oct-05 05:00N 35°22' E 139°42'511.2
2017-Oct-05 04:30N 35°27' E 139°47'612.4
2017-Oct-05 04:00N 35°30' E 139°53'6 0.7
2017-Oct-04 19:28N 35°30' E 140°00'0 0.0
2017-Oct-04 18:25N 35°30' E 140°00'0 0.0
2017-Oct-04 17:49N 35°30' E 140°00'0 0.0
2017-Oct-04 17:19N 35°30' E 140°00'  

Dump ship's entire track history